Time;durP1;ratioP1;P1;durP2;ratioP2;P2;SDS_P1;SDS_P2;PMS_P1;PMS_P2;Temp;Humidity;BMP_temperature;BMP_pressure;BME280_temperature;BME280_humidity;BME280_pressure;Samples;Min_cycle;Max_cycle;Signal;HPM_P1;HPM_P2
2021/07/13 00:00:59;;;;;;;;;;;;;;;23.52;66.74;100671.41;5005064;28;1890;-42
2021/07/13 00:03:26;;;;;;;;;;;;;;;23.40;66.64;100676.28;5006394;28;1946;-42
2021/07/13 00:05:52;;;;;;;;;;;;;;;23.29;67.01;100673.91;5006622;28;1524;-42
2021/07/13 00:08:19;;;;;;;;;;;;;;;23.31;66.69;100678.13;5014906;28;1975;-42
2021/07/13 00:10:45;;;;;;;;;;;;;;;23.28;67.01;100680.31;5001752;28;1792;-42
2021/07/13 00:13:13;;;;;;;;;;;;;;;23.27;66.81;100682.16;5008248;28;1827;-42
2021/07/13 00:15:41;;;;;;;;;;;;;;;23.26;67.00;100680.50;5003514;28;1710;-42
2021/07/13 00:18:08;;;;;;;;;;;;;;;23.34;66.81;100687.75;5005119;28;1799;-42
2021/07/13 00:20:35;;;;;;;;;;;;;;;23.38;66.76;100679.16;5012083;28;1420;-42
2021/07/13 00:23:01;;;;;;;;;;;;;;;23.38;66.65;100668.34;5012900;28;1895;-42
2021/07/13 00:25:29;;;;;;;;;;;;;;;23.42;66.38;100680.50;5007997;28;1909;-42
2021/07/13 00:27:56;;;;;;;;;;;;;;;23.40;66.63;100679.84;5006306;28;1972;-42
2021/07/13 00:30:24;;;;;;;;;;;;;;;23.21;66.66;100663.94;5001675;28;1640;-42
2021/07/13 00:32:51;;;;;;;;;;;;;;;23.17;66.83;100676.06;5009920;28;1672;-42
2021/07/13 00:35:18;;;;;;;;;;;;;;;23.24;66.52;100666.31;5005180;28;1899;-42
2021/07/13 00:37:46;;;;;;;;;;;;;;;23.22;66.47;100669.19;5005366;28;1764;-42
2021/07/13 00:40:13;;;;;;;;;;;;;;;23.04;66.58;100665.78;5010337;28;2056;-42
2021/07/13 00:42:40;;;;;;;;;;;;;;;22.89;66.78;100668.22;5007540;28;1682;-42
2021/07/13 00:45:07;;;;;;;;;;;;;;;22.90;66.92;100664.53;5005437;28;1737;-42
2021/07/13 00:47:35;;;;;;;;;;;;;;;22.94;66.58;100671.28;5007453;28;1986;-42
2021/07/13 00:50:02;;;;;;;;;;;;;;;23.00;66.54;100664.38;5014113;28;1920;-42
2021/07/13 00:52:28;;;;;;;;;;;;;;;23.19;66.14;100663.25;5004998;28;1888;-42
2021/07/13 00:54:56;;;;;;;;;;;;;;;23.13;66.02;100653.13;5006793;28;1477;-42
2021/07/13 00:57:22;;;;;;;;;;;;;;;23.20;65.82;100673.06;5010150;28;1710;-43
2021/07/13 00:59:48;;;;;;;;;;;;;;;23.21;65.91;100663.94;5003754;28;1616;-42
2021/07/13 01:02:16;;;;;;;;;;;;;;;23.19;65.89;100665.97;5012519;28;1866;-42
2021/07/13 01:04:46;;;;;;;;;;;;;;;23.19;65.79;100663.25;5007016;28;1523;-42
2021/07/13 01:07:18;;;;;;;;;;;;;;;23.20;65.55;100659.56;5005430;28;1981;-42
2021/07/13 01:09:48;;;;;;;;;;;;;;;23.25;65.59;100662.59;5007914;28;1647;-42
2021/07/13 01:12:18;;;;;;;;;;;;;;;23.19;65.84;100679.44;5003183;28;1695;-42
2021/07/13 01:14:48;;;;;;;;;;;;;;;23.11;65.92;100661.38;5011967;28;1728;-42
2021/07/13 01:17:15;;;;;;;;;;;;;;;23.16;66.07;100664.44;5003310;28;1737;-42
2021/07/13 01:19:58;;;;;;;;;;;;;;;22.97;66.25;100662.00;4998460;28;1540;-42
2021/07/13 01:22:28;;;;;;;;;;;;;;;22.81;66.56;100655.53;4997912;28;1490;-42
2021/07/13 01:25:04;;;;;;;;;;;;;;;22.85;66.47;100656.06;5006247;28;1672;-42
2021/07/13 01:27:38;;;;;;;;;;;;;;;22.96;66.31;100665.69;5006525;28;1910;-42
2021/07/13 01:30:07;;;;;;;;;;;;;;;23.10;65.97;100659.72;5005879;28;1702;-42
2021/07/13 01:32:35;;;;;;;;;;;;;;;23.20;65.43;100670.38;5005431;28;1580;-42
2021/07/13 01:35:04;;;;;;;;;;;;;;;23.22;65.24;100663.78;5005687;28;1761;-43
2021/07/13 01:37:31;;;;;;;;;;;;;;;23.27;65.45;100671.38;5006087;28;1640;-42
2021/07/13 01:39:58;;;;;;;;;;;;;;;23.25;65.30;100669.84;5006567;28;1548;-42
2021/07/13 01:42:26;;;;;;;;;;;;;;;23.21;65.18;100664.78;5004600;28;1604;-42
2021/07/13 01:44:53;;;;;;;;;;;;;;;23.22;65.21;100671.03;5001461;28;2064;-42
2021/07/13 01:47:22;;;;;;;;;;;;;;;23.16;65.39;100664.44;5005472;28;1600;-42
2021/07/13 01:49:48;;;;;;;;;;;;;;;23.18;65.57;100670.53;5011432;28;1819;-42
2021/07/13 01:52:15;;;;;;;;;;;;;;;23.25;65.50;100667.16;5006242;28;1603;-42
2021/07/13 01:54:43;;;;;;;;;;;;;;;23.28;65.15;100661.41;5002030;28;1723;-42
2021/07/13 01:57:09;;;;;;;;;;;;;;;23.22;65.35;100663.78;5001633;28;1613;-42
2021/07/13 01:59:36;;;;;;;;;;;;;;;23.06;65.58;100662.88;5007919;28;1655;-42
2021/07/13 02:02:04;;;;;;;;;;;;;;;22.91;65.63;100659.97;5128056;22;3657;-41
2021/07/13 02:04:33;;;;;;;;;;;;;;;22.77;65.95;100674.91;5022939;28;1693;-40
2021/07/13 02:07:00;;;;;;;;;;;;;;;22.72;65.97;100675.41;5040966;28;1679;-40
2021/07/13 02:09:27;;;;;;;;;;;;;;;22.70;65.96;100674.72;5029207;28;1975;-40
2021/07/13 02:11:53;;;;;;;;;;;;;;;22.75;65.74;100666.16;5029851;28;1598;-41
2021/07/13 02:14:20;;;;;;;;;;;;;;;22.80;65.54;100672.75;5030600;28;1668;-40
2021/07/13 02:16:47;;;;;;;;;;;;;;;22.79;65.63;100668.34;5032369;28;1447;-41
2021/07/13 02:19:14;;;;;;;;;;;;;;;22.84;65.16;100662.50;5035321;28;1576;-40
2021/07/13 02:21:41;;;;;;;;;;;;;;;22.90;65.18;100678.00;5030274;28;1671;-40
2021/07/13 02:24:08;;;;;;;;;;;;;;;22.96;65.06;100679.19;5040281;28;1534;-41
2021/07/13 02:26:43;;;;;;;;;;;;;;;22.98;65.00;100678.03;5030408;28;1568;-40
2021/07/13 02:29:13;;;;;;;;;;;;;;;22.95;64.93;100681.03;5036163;28;1973;-40
2021/07/13 02:31:42;;;;;;;;;;;;;;;23.03;64.93;100682.94;5041881;28;1626;-41
2021/07/13 02:34:10;;;;;;;;;;;;;;;23.15;64.80;100686.19;5047168;28;1455;-40
2021/07/13 02:36:39;;;;;;;;;;;;;;;23.11;64.63;100687.53;5029061;28;1632;-40
2021/07/13 02:39:08;;;;;;;;;;;;;;;23.14;64.72;100688.06;5037532;28;1709;-40
2021/07/13 02:41:35;;;;;;;;;;;;;;;23.13;64.66;100674.72;5045008;28;1507;-41
2021/07/13 02:44:03;;;;;;;;;;;;;;;23.02;64.60;100675.88;5040581;28;1418;-41
2021/07/13 02:46:30;;;;;;;;;;;;;;;23.02;65.01;100678.59;5035239;28;1709;-40
2021/07/13 02:48:58;;;;;;;;;;;;;;;22.98;65.14;100680.72;5035743;28;1973;-40
2021/07/13 02:51:24;;;;;;;;;;;;;;;23.12;64.74;100676.59;5027721;28;1535;-40
2021/07/13 02:53:52;;;;;;;;;;;;;;;23.17;64.89;100682.31;5025284;28;1410;-41
2021/07/13 02:56:21;;;;;;;;;;;;;;;23.18;64.62;100667.00;5032013;28;1516;-40
2021/07/13 02:58:49;;;;;;;;;;;;;;;23.09;64.84;100665.28;5025415;28;1574;-41
2021/07/13 03:01:15;;;;;;;;;;;;;;;23.10;64.73;100669.66;5027857;28;1469;-41
2021/07/13 03:03:43;;;;;;;;;;;;;;;23.14;64.71;100673.69;5039712;28;1799;-40
2021/07/13 03:06:14;;;;;;;;;;;;;;;23.17;64.94;100684.16;5033553;28;1758;-41
2021/07/13 03:08:40;;;;;;;;;;;;;;;23.11;64.70;100680.28;5034427;28;1977;-40
2021/07/13 03:11:07;;;;;;;;;;;;;;;23.10;64.75;100675.03;5030801;28;1739;-40
2021/07/13 03:13:36;;;;;;;;;;;;;;;23.13;64.94;100677.41;5025533;28;1683;-40
2021/07/13 03:16:03;;;;;;;;;;;;;;;23.14;65.01;100681.78;5029879;28;1658;-40
2021/07/13 03:18:30;;;;;;;;;;;;;;;22.99;65.50;100658.13;5034490;28;1533;-40
2021/07/13 03:20:57;;;;;;;;;;;;;;;23.08;65.19;100668.97;5029973;28;1772;-41
2021/07/13 03:23:25;;;;;;;;;;;;;;;22.94;65.66;100655.09;5041497;28;1566;-40
2021/07/13 03:25:52;;;;;;;;;;;;;;;22.97;65.70;100679.03;5032788;28;1451;-40
2021/07/13 03:28:18;;;;;;;;;;;;;;;23.03;65.77;100678.41;5039142;28;1977;-40
2021/07/13 03:30:47;;;;;;;;;;;;;;;23.02;65.53;100678.59;5036650;28;1514;-41
2021/07/13 03:33:14;;;;;;;;;;;;;;;23.02;65.79;100679.41;5029214;28;1585;-40
2021/07/13 03:35:41;;;;;;;;;;;;;;;22.86;66.21;100678.47;5035175;28;1644;-40
2021/07/13 03:38:07;;;;;;;;;;;;;;;22.74;66.53;100669.84;5030791;28;1945;-40
2021/07/13 03:40:34;;;;;;;;;;;;;;;22.65;66.90;100671.66;5021913;28;1812;-41
2021/07/13 03:43:00;;;;;;;;;;;;;;;22.91;66.56;100686.94;5020828;28;1733;-41
2021/07/13 03:45:29;;;;;;;;;;;;;;;23.07;65.52;100680.78;5026516;28;1737;-42
2021/07/13 03:48:01;;;;;;;;;;;;;;;23.18;65.44;100670.53;5027133;28;1732;-41
2021/07/13 03:50:42;;;;;;;;;;;;;;;23.25;65.49;100678.78;5021360;28;1759;-41
2021/07/13 03:53:10;;;;;;;;;;;;;;;23.26;65.25;100669.69;5040561;28;1889;-41
2021/07/13 03:55:37;;;;;;;;;;;;;;;23.26;65.63;100668.84;5041397;28;2856;-41
2021/07/13 03:58:04;;;;;;;;;;;;;;;23.32;65.47;100663.63;5029457;28;1926;-41
2021/07/13 04:00:33;;;;;;;;;;;;;;;23.29;65.48;100677.44;5039745;28;1983;-41
2021/07/13 04:03:05;;;;;;;;;;;;;;;23.27;66.25;100678.63;5025452;28;1650;-42
2021/07/13 04:05:33;;;;;;;;;;;;;;;23.30;65.38;100675.59;5032199;28;2061;-41
2021/07/13 04:08:00;;;;;;;;;;;;;;;23.31;65.90;100677.28;5038241;28;1786;-41
2021/07/13 04:10:27;;;;;;;;;;;;;;;23.33;65.79;100680.66;5034039;28;1972;-41
2021/07/13 04:12:58;;;;;;;;;;;;;;;23.35;65.85;100692.97;5033953;28;1624;-41
2021/07/13 04:15:25;;;;;;;;;;;;;;;23.46;65.49;100690.94;5032421;28;1845;-41
2021/07/13 04:17:53;;;;;;;;;;;;;;;23.62;65.27;100677.50;5035249;28;1480;-42
2021/07/13 04:20:21;;;;;;;;;;;;;;;23.69;65.20;100681.19;5029994;28;1596;-41
2021/07/13 04:22:49;;;;;;;;;;;;;;;23.82;64.70;100678.03;5021395;28;1388;-41
2021/07/13 04:25:16;;;;;;;;;;;;;;;23.79;64.27;100665.69;5025950;28;1550;-41
2021/07/13 04:27:43;;;;;;;;;;;;;;;23.71;65.46;100691.81;5026502;28;1601;-41
2021/07/13 04:30:11;;;;;;;;;;;;;;;23.47;65.78;100671.06;5027310;28;1971;-41
2021/07/13 04:32:37;;;;;;;;;;;;;;;23.53;65.54;100671.22;5022131;28;1547;-41
2021/07/13 04:35:04;;;;;;;;;;;;;;;23.61;65.61;100690.13;5030742;28;1805;-42
2021/07/13 04:37:33;;;;;;;;;;;;;;;23.65;65.67;100679.84;5023758;28;1894;-42
2021/07/13 04:39:59;;;;;;;;;;;;;;;23.70;65.71;100677.50;5026635;28;1511;-41
2021/07/13 04:42:26;;;;;;;;;;;;;;;23.67;65.70;100679.69;5030442;28;1685;-41
2021/07/13 04:44:52;;;;;;;;;;;;;;;23.68;65.25;100673.28;5028038;28;1733;-42
2021/07/13 04:47:19;;;;;;;;;;;;;;;23.73;65.49;100674.44;5040093;28;1531;-41
2021/07/13 04:49:45;;;;;;;;;;;;;;;23.73;65.49;100692.50;5035785;28;1973;-42
2021/07/13 04:52:12;;;;;;;;;;;;;;;23.63;66.01;100687.25;5039427;28;1710;-42
2021/07/13 04:54:40;;;;;;;;;;;;;;;23.51;66.52;100694.00;5034275;28;1605;-42
2021/07/13 04:57:06;;;;;;;;;;;;;;;23.62;65.83;100691.00;5024476;28;1561;-42
2021/07/13 04:59:33;;;;;;;;;;;;;;;23.71;65.45;100689.97;5025889;28;1552;-42
2021/07/13 05:02:00;;;;;;;;;;;;;;;23.73;65.79;100695.19;5034503;28;1564;-42
2021/07/13 05:04:26;;;;;;;;;;;;;;;23.71;65.67;100673.75;5022784;28;1723;-42
2021/07/13 05:06:53;;;;;;;;;;;;;;;23.67;65.72;100682.38;5031874;28;1530;-42
2021/07/13 05:09:19;;;;;;;;;;;;;;;23.72;66.22;100680.88;5028058;28;1942;-41
2021/07/13 05:11:47;;;;;;;;;;;;;;;23.76;65.56;100687.63;5029065;28;1770;-41
2021/07/13 05:14:14;;;;;;;;;;;;;;;23.75;65.71;100680.50;5023626;28;1552;-41
2021/07/13 05:16:40;;;;;;;;;;;;;;;23.72;66.32;100697.06;5033832;28;1613;-42
2021/07/13 05:19:09;;;;;;;;;;;;;;;23.76;66.22;100698.41;5031889;28;1550;-41
2021/07/13 05:21:35;;;;;;;;;;;;;;;23.85;66.46;100682.25;5036100;28;1698;-42
2021/07/13 05:24:02;;;;;;;;;;;;;;;23.93;66.19;100684.94;5023857;28;1793;-42
2021/07/13 05:26:28;;;;;;;;;;;;;;;23.95;66.17;100686.44;5029236;28;1666;-42
2021/07/13 05:29:00;;;;;;;;;;;;;;;23.97;65.68;100691.69;5030281;28;1902;-42
2021/07/13 05:31:26;;;;;;;;;;;;;;;23.99;65.55;100692.34;5029446;28;1751;-42
2021/07/13 05:33:57;;;;;;;;;;;;;;;24.07;65.49;100689.63;5027506;28;1909;-42
2021/07/13 05:36:23;;;;;;;;;;;;;;;24.10;65.36;100683.06;5033633;28;1732;-42
2021/07/13 05:38:50;;;;;;;;;;;;;;;24.13;65.97;100698.91;5021990;28;1486;-42
2021/07/13 05:41:16;;;;;;;;;;;;;;;24.10;65.35;100683.06;5031006;28;1555;-42
2021/07/13 05:43:43;;;;;;;;;;;;;;;24.13;65.68;100680.88;5030223;28;1638;-42
2021/07/13 05:46:10;;;;;;;;;;;;;;;24.13;66.08;100678.16;5039996;28;1633;-41
2021/07/13 05:48:37;;;;;;;;;;;;;;;24.18;65.41;100681.19;5030088;28;1981;-41
2021/07/13 05:51:03;;;;;;;;;;;;;;;24.20;65.80;100695.38;5025378;28;1589;-41
2021/07/13 05:53:31;;;;;;;;;;;;;;;24.18;65.49;100681.19;5036024;28;1783;-42
2021/07/13 05:55:58;;;;;;;;;;;;;;;24.22;65.59;100682.53;5019256;28;2041;-42
2021/07/13 05:58:24;;;;;;;;;;;;;;;24.27;65.23;100689.28;5038501;28;1988;-42
2021/07/13 06:00:51;;;;;;;;;;;;;;;24.26;65.27;100684.91;5030159;28;1776;-42
2021/07/13 06:03:18;;;;;;;;;;;;;;;24.31;65.62;100694.19;5024489;28;1522;-42
2021/07/13 06:05:45;;;;;;;;;;;;;;;24.32;65.75;100679.63;5035960;28;1540;-42
2021/07/13 06:08:11;;;;;;;;;;;;;;;24.39;65.63;100687.88;5036297;28;1565;-41
2021/07/13 06:10:38;;;;;;;;;;;;;;;24.36;65.72;100682.84;5033443;28;1910;-41
2021/07/13 06:13:05;;;;;;;;;;;;;;;24.38;65.42;100670.81;5030538;28;1706;-41
2021/07/13 06:15:31;;;;;;;;;;;;;;;24.49;65.34;100683.16;5023755;28;1536;-41
2021/07/13 06:17:57;;;;;;;;;;;;;;;24.48;65.79;100681.44;5029982;28;1630;-41
2021/07/13 06:20:25;;;;;;;;;;;;;;;24.46;65.38;100672.66;5029301;28;1610;-42
2021/07/13 06:22:52;;;;;;;;;;;;;;;24.51;65.67;100678.44;5024935;28;1697;-42
2021/07/13 06:25:18;;;;;;;;;;;;;;;24.46;65.78;100664.56;5021820;28;1889;-42
2021/07/13 06:27:45;;;;;;;;;;;;;;;24.51;65.93;100664.94;5029682;28;1582;-41
2021/07/13 06:30:13;;;;;;;;;;;;;;;24.50;65.54;100668.63;5032171;28;2004;-41
2021/07/13 06:32:39;;;;;;;;;;;;;;;24.51;65.69;100666.75;5021908;28;1697;-41
2021/07/13 06:35:06;;;;;;;;;;;;;;;24.48;66.18;100659.81;5038980;28;1810;-42
2021/07/13 06:37:34;;;;;;;;;;;;;;;24.51;66.10;100670.34;5023840;28;1583;-42
2021/07/13 06:40:00;;;;;;;;;;;;;;;24.54;66.10;100669.97;5027007;28;2019;-41
2021/07/13 06:42:27;;;;;;;;;;;;;;;24.49;65.61;100661.53;5030148;28;1579;-42
2021/07/13 06:44:53;;;;;;;;;;;;;;;24.54;66.10;100680.78;5030045;28;1661;-42
2021/07/13 06:47:20;;;;;;;;;;;;;;;24.51;66.38;100647.84;5027804;28;1468;-42
2021/07/13 06:49:46;;;;;;;;;;;;;;;24.53;65.30;100662.88;5041129;28;1910;-42
2021/07/13 06:52:13;;;;;;;;;;;;;;;24.53;65.87;100652.06;5033554;28;1456;-42
2021/07/13 06:54:40;;;;;;;;;;;;;;;24.55;66.03;100668.97;5033308;28;2042;-42
2021/07/13 06:57:07;;;;;;;;;;;;;;;24.53;65.68;100656.63;5035183;28;1538;-41
2021/07/13 06:59:34;;;;;;;;;;;;;;;24.52;66.34;100676.56;5025304;28;1740;-41
2021/07/13 07:02:01;;;;;;;;;;;;;;;24.53;65.73;100659.31;5032368;28;1519;-42
2021/07/13 07:04:27;;;;;;;;;;;;;;;24.56;65.78;100667.94;5031579;28;1472;-42
2021/07/13 07:06:54;;;;;;;;;;;;;;;24.57;65.96;100657.94;5032227;28;1757;-42
2021/07/13 07:09:20;;;;;;;;;;;;;;;24.61;66.00;100664.69;5030440;28;1902;-41
2021/07/13 07:11:48;;;;;;;;;;;;;;;24.62;65.91;100660.97;5038024;28;1575;-42
2021/07/13 07:14:15;;;;;;;;;;;;;;;24.65;66.41;100666.06;5032723;28;1625;-41
2021/07/13 07:16:41;;;;;;;;;;;;;;;24.66;66.35;100667.72;5026492;28;1576;-42
2021/07/13 07:19:07;;;;;;;;;;;;;;;24.66;66.33;100670.44;5037761;28;1424;-41
2021/07/13 07:21:34;;;;;;;;;;;;;;;24.70;66.12;100668.22;5030038;28;1682;-42
2021/07/13 07:24:00;;;;;;;;;;;;;;;24.72;65.74;100666.19;5027290;28;1790;-42
2021/07/13 07:26:27;;;;;;;;;;;;;;;24.71;66.36;100680.72;5032579;28;1524;-41
2021/07/13 07:28:55;;;;;;;;;;;;;;;24.70;66.65;100676.34;5029914;28;1600;-42
2021/07/13 07:31:21;;;;;;;;;;;;;;;24.68;66.20;100672.97;5028499;28;1943;-41
2021/07/13 07:33:48;;;;;;;;;;;;;;;24.73;66.22;100673.25;5026189;28;1747;-41
2021/07/13 07:36:14;;;;;;;;;;;;;;;24.69;66.64;100667.38;5033061;28;1670;-42
2021/07/13 07:38:41;;;;;;;;;;;;;;;24.71;66.30;100675.31;5017778;28;1981;-42
2021/07/13 07:41:08;;;;;;;;;;;;;;;24.67;66.54;100669.44;5034084;28;1666;-42
2021/07/13 07:43:34;;;;;;;;;;;;;;;24.71;65.91;100675.31;5035593;28;1620;-41
2021/07/13 07:46:02;;;;;;;;;;;;;;;24.69;65.60;100658.41;5034161;28;2014;-41
2021/07/13 07:48:29;;;;;;;;;;;;;;;24.72;66.08;100663.47;5035333;28;1872;-41
2021/07/13 07:50:55;;;;;;;;;;;;;;;24.71;66.76;100665.34;5041388;28;1977;-42
2021/07/13 07:53:22;;;;;;;;;;;;;;;24.75;65.88;100665.81;5022396;28;2688;-42
2021/07/13 07:55:48;;;;;;;;;;;;;;;24.80;66.09;100668.84;5025192;28;1623;-41
2021/07/13 07:58:15;;;;;;;;;;;;;;;24.81;65.91;100681.38;5025299;28;1440;-42
2021/07/13 08:00:41;;;;;;;;;;;;;;;24.80;66.15;100663.44;5028696;28;1510;-41
2021/07/13 08:03:09;;;;;;;;;;;;;;;24.79;66.48;100665.31;5025460;28;1555;-42
2021/07/13 08:05:37;;;;;;;;;;;;;;;24.85;66.57;100674.59;5027827;28;1918;-43
2021/07/13 08:08:04;;;;;;;;;;;;;;;24.85;66.66;100674.59;5036436;28;1659;-41
2021/07/13 08:10:30;;;;;;;;;;;;;;;24.81;66.05;100663.28;5032912;28;1993;-41
2021/07/13 08:12:57;;;;;;;;;;;;;;;24.82;66.31;100666.81;5029726;28;1599;-42
2021/07/13 08:15:23;;;;;;;;;;;;;;;24.83;66.13;100657.69;5029578;28;2047;-41
2021/07/13 08:17:50;;;;;;;;;;;;;;;24.80;66.63;100647.22;5028958;28;1548;-42
2021/07/13 08:20:18;;;;;;;;;;;;;;;24.84;66.51;100678.28;5032322;28;1268;-41
2021/07/13 08:22:46;;;;;;;;;;;;;;;24.83;65.65;100665.81;5029067;28;1445;-42
2021/07/13 08:25:12;;;;;;;;;;;;;;;24.86;66.79;100668.13;5030301;28;1377;-41
2021/07/13 08:27:39;;;;;;;;;;;;;;;24.84;66.22;100664.78;5032040;28;1827;-42
2021/07/13 08:30:06;;;;;;;;;;;;;;;24.84;66.15;100681.00;5034432;28;1979;-42
2021/07/13 08:32:33;;;;;;;;;;;;;;;24.81;66.68;100673.25;5033591;28;1935;-41
2021/07/13 08:34:59;;;;;;;;;;;;;;;24.85;67.08;100668.31;5029899;28;1840;-42
2021/07/13 08:37:29;;;;;;;;;;;;;;;24.85;66.57;100671.88;5030187;28;2188;-42
2021/07/13 08:39:55;;;;;;;;;;;;;;;24.83;65.98;100668.50;5029652;28;1715;-41
2021/07/13 08:42:22;;;;;;;;;;;;;;;24.82;65.83;100661.41;5031860;28;1211;-41
2021/07/13 08:44:48;;;;;;;;;;;;;;;24.91;66.23;100654.94;5029497;28;2233;-42
2021/07/13 08:47:15;;;;;;;;;;;;;;;24.91;66.61;100668.47;5031635;28;1626;-41
2021/07/13 08:49:43;;;;;;;;;;;;;;;24.89;65.58;100662.38;5028946;28;1993;-41
2021/07/13 08:52:10;;;;;;;;;;;;;;;24.96;66.51;100670.63;5030050;28;1530;-42
2021/07/13 08:54:38;;;;;;;;;;;;;;;24.92;66.42;100664.72;5033624;28;1522;-41
2021/07/13 08:57:04;;;;;;;;;;;;;;;24.98;66.47;100661.31;5030522;28;1425;-41
2021/07/13 08:59:31;;;;;;;;;;;;;;;24.97;66.17;100667.75;5033643;28;1350;-41
2021/07/13 09:01:58;;;;;;;;;;;;;;;24.97;67.15;100669.63;5028500;28;1542;-42
2021/07/13 09:04:32;;;;;;;;;;;;;;;24.92;66.56;100663.88;5030377;28;1677;-42
2021/07/13 09:06:59;;;;;;;;;;;;;;;24.94;67.20;100664.56;5029012;28;1722;-41
2021/07/13 09:09:26;;;;;;;;;;;;;;;24.91;66.93;100673.88;5030776;28;1567;-41
2021/07/13 09:12:11;;;;;;;;;;;;;;;24.89;67.23;100662.38;5026054;28;1902;-42
2021/07/13 09:14:48;;;;;;;;;;;;;;;24.90;68.23;100674.88;5029598;28;1654;-42
2021/07/13 09:17:25;;;;;;;;;;;;;;;24.90;68.84;100677.59;5029101;28;1608;-42
2021/07/13 09:19:57;;;;;;;;;;;;;;;24.89;69.04;100659.69;5029875;28;1273;-41
2021/07/13 09:22:24;;;;;;;;;;;;;;;24.87;69.04;100667.13;5030911;28;1286;-41
2021/07/13 09:24:50;;;;;;;;;;;;;;;24.88;69.08;100667.97;5028622;28;1509;-42
2021/07/13 09:27:19;;;;;;;;;;;;;;;24.89;68.83;100672.34;5027507;28;1497;-41
2021/07/13 09:29:48;;;;;;;;;;;;;;;24.83;69.13;100662.22;5033398;28;1811;-42
2021/07/13 09:32:29;;;;;;;;;;;;;;;24.86;69.09;100670.84;5030597;28;1733;-41
2021/07/13 09:34:56;;;;;;;;;;;;;;;24.85;69.89;100677.28;5030448;28;1344;-42
2021/07/13 09:37:24;;;;;;;;;;;;;;;24.49;67.90;100661.53;5029434;28;1481;-43
2021/07/13 09:40:06;;;;;;;;;;;;;;;23.68;66.73;100679.50;5030363;28;1411;-41
2021/07/13 09:42:34;;;;;;;;;;;;;;;22.96;66.35;100669.25;5028339;28;1538;-41
2021/07/13 09:45:16;;;;;;;;;;;;;;;22.55;65.84;100662.88;5028368;28;1544;-41
2021/07/13 09:47:42;;;;;;;;;;;;;;;22.48;65.42;100661.81;5024200;28;1997;-41
2021/07/13 09:50:09;;;;;;;;;;;;;;;22.42;65.38;100665.97;5030282;28;1906;-41
2021/07/13 09:52:36;;;;;;;;;;;;;;;22.43;64.89;100673.91;5028765;28;1620;-40
2021/07/13 09:55:13;;;;;;;;;;;;;;;22.37;64.97;100668.34;5028333;28;1726;-41
2021/07/13 09:57:41;;;;;;;;;;;;;;;22.32;64.09;100654.47;5029441;28;1766;-42
2021/07/13 10:00:08;;;;;;;;;;;;;;;22.33;63.96;100667.81;5028336;28;1511;-41
2021/07/13 10:02:35;;;;;;;;;;;;;;;22.21;63.36;100674.44;5027618;28;1518;-41
2021/07/13 10:05:03;;;;;;;;;;;;;;;22.22;63.79;100670.72;5030952;28;1444;-42
2021/07/13 10:07:30;;;;;;;;;;;;;;;22.27;63.33;100673.00;5028851;28;1514;-41
2021/07/13 10:09:59;;;;;;;;;;;;;;;22.37;64.02;100652.16;5029109;28;1569;-41
2021/07/13 10:12:27;;;;;;;;;;;;;;;22.33;64.31;100656.19;5031621;28;1523;-41
2021/07/13 10:14:56;;;;;;;;;;;;;;;22.39;64.16;100644.78;5028482;28;1461;-42
2021/07/13 10:17:24;;;;;;;;;;;;;;;22.71;63.31;100646.75;5028321;28;1621;-41
2021/07/13 10:19:52;;;;;;;;;;;;;;;23.10;63.41;100645.38;5028146;28;1411;-41
2021/07/13 10:22:20;;;;;;;;;;;;;;;23.40;62.35;100649.31;5025681;28;1494;-42
2021/07/13 10:24:48;;;;;;;;;;;;;;;23.62;62.51;100642.41;5028114;28;1540;-41
2021/07/13 10:27:15;;;;;;;;;;;;;;;23.83;62.31;100639.19;5025975;28;1424;-42
2021/07/13 10:29:43;;;;;;;;;;;;;;;23.96;62.30;100644.09;5027798;28;1668;-41
2021/07/13 10:32:33;;;;;;;;;;;;;;;24.13;61.87;100656.56;5027970;28;2040;-41
2021/07/13 10:35:02;;;;;;;;;;;;;;;23.82;63.49;100645.63;5030402;28;1587;-42
2021/07/13 10:37:33;;;;;;;;;;;;;;;23.35;63.33;100662.44;5030962;28;1545;-42
2021/07/13 10:40:01;;;;;;;;;;;;;;;22.93;64.25;100642.59;5031100;28;1511;-41
2021/07/13 10:42:51;;;;;;;;;;;;;;;22.78;64.66;100641.53;5032345;28;1461;-42
2021/07/13 10:45:19;;;;;;;;;;;;;;;22.64;64.82;100629.53;5013740;28;2023;-41
2021/07/13 10:48:10;;;;;;;;;;;;;;;22.56;65.00;100641.16;5032125;28;1345;-42
2021/07/13 10:50:39;;;;;;;;;;;;;;;22.46;65.25;100624.25;5020875;28;2357;-41
2021/07/13 10:53:07;;;;;;;;;;;;;;;22.50;64.84;100632.84;5034694;28;1502;-41
2021/07/13 10:55:47;;;;;;;;;;;;;;;22.43;64.85;100635.34;5029119;28;1537;-41
2021/07/13 10:58:21;;;;;;;;;;;;;;;22.46;64.56;100631.47;5031247;28;1767;-41
2021/07/13 11:01:11;;;;;;;;;;;;;;;22.39;64.78;100623.22;5031141;28;1868;-41
2021/07/13 11:03:50;;;;;;;;;;;;;;;22.32;64.83;100628.41;5019073;28;2008;-41
2021/07/13 11:06:19;;;;;;;;;;;;;;;22.30;65.28;100621.47;5032839;28;1498;-41
2021/07/13 11:08:52;;;;;;;;;;;;;;;22.29;64.57;100630.56;5030072;28;2020;-41
2021/07/13 11:11:35;;;;;;;;;;;;;;;22.20;65.09;100608.97;5034217;28;1906;-41
2021/07/13 11:14:04;;;;;;;;;;;;;;;22.22;64.90;100617.72;5033023;28;1380;-41
2021/07/13 11:16:31;;;;;;;;;;;;;;;22.27;64.59;100619.13;5031332;28;1693;-41
2021/07/13 11:18:58;;;;;;;;;;;;;;;22.21;64.56;100607.09;5032491;28;1568;-41
2021/07/13 11:21:27;;;;;;;;;;;;;;;22.13;65.04;100610.59;5034221;28;1519;-41
2021/07/13 11:23:55;;;;;;;;;;;;;;;22.17;64.95;100600.34;5029596;28;1724;-41
2021/07/13 11:26:23;;;;;;;;;;;;;;;22.16;64.83;100607.59;5031843;28;1505;-41
2021/07/13 11:28:50;;;;;;;;;;;;;;;22.12;64.89;100600.81;5030858;28;1736;-41
2021/07/13 11:31:19;;;;;;;;;;;;;;;22.18;64.35;100605.59;5029427;28;1922;-41
2021/07/13 11:33:52;;;;;;;;;;;;;;;22.34;64.17;100625.53;5026550;28;1521;-42
2021/07/13 11:36:26;;;;;;;;;;;;;;;22.53;65.23;100602.91;5028812;28;1473;-41
2021/07/13 11:38:54;;;;;;;;;;;;;;;22.73;66.47;100611.56;5028406;28;1546;-41
2021/07/13 11:41:20;;;;;;;;;;;;;;;22.91;67.99;100595.25;5030711;28;1593;-41
2021/07/13 11:43:51;;;;;;;;;;;;;;;23.03;68.43;100589.41;5027944;28;1806;-42
2021/07/13 11:46:18;;;;;;;;;;;;;;;23.32;68.59;100584.56;5031060;28;1159;-41
2021/07/13 11:48:54;;;;;;;;;;;;;;;23.33;68.94;100578.97;5027990;28;1666;-41
2021/07/13 11:51:24;;;;;;;;;;;;;;;23.41;69.24;100587.06;5030613;28;1969;-41
2021/07/13 11:53:58;;;;;;;;;;;;;;;23.40;69.97;100588.09;5026440;28;1504;-41
2021/07/13 11:56:25;;;;;;;;;;;;;;;23.52;69.78;100587.75;5027668;28;1513;-41
2021/07/13 11:58:51;;;;;;;;;;;;;;;23.61;69.91;100598.34;5026523;28;1536;-42
2021/07/13 12:01:20;;;;;;;;;;;;;;;23.62;69.84;100583.00;5029677;28;1619;-41
2021/07/13 12:03:47;;;;;;;;;;;;;;;23.74;69.88;100581.63;5028211;28;1516;-42
2021/07/13 12:06:15;;;;;;;;;;;;;;;23.73;70.06;100585.34;5030210;28;1850;-42
2021/07/13 12:08:41;;;;;;;;;;;;;;;23.62;68.79;100583.00;5030092;28;1486;-42
2021/07/13 12:11:10;;;;;;;;;;;;;;;23.39;69.02;100570.19;5029427;28;1910;-42
2021/07/13 12:13:38;;;;;;;;;;;;;;;23.30;69.88;100579.31;5029082;28;1592;-41
2021/07/13 12:16:14;;;;;;;;;;;;;;;23.47;70.51;100590.94;5027454;28;1578;-41
2021/07/13 12:18:41;;;;;;;;;;;;;;;23.46;70.55;100577.59;5029697;28;1585;-41
2021/07/13 12:21:08;;;;;;;;;;;;;;;23.58;70.36;100587.06;5030524;28;1855;-41
2021/07/13 12:23:34;;;;;;;;;;;;;;;23.64;69.94;100589.09;5029161;28;1798;-42
2021/07/13 12:26:15;;;;;;;;;;;;;;;23.65;70.17;100571.84;5030515;28;1306;-41
2021/07/13 12:31:37;;;;;;;;;;;;;;;23.82;69.92;100573.56;5111320;27;1491;-41
2021/07/13 12:34:05;;;;;;;;;;;;;;;23.92;69.78;100569.81;5091248;28;1335;-41
2021/07/13 12:36:34;;;;;;;;;;;;;;;23.90;69.96;100567.28;5089471;28;1654;-41
2021/07/13 12:39:15;;;;;;;;;;;;;;;23.90;69.29;100564.59;5090567;28;1677;-41
2021/07/13 12:41:43;;;;;;;;;;;;;;;23.90;70.13;100551.09;5086746;28;1678;-40
2021/07/13 12:44:32;;;;;;;;;;;;;;;23.98;69.59;100563.72;5086244;28;1666;-41
2021/07/13 12:47:32;;;;;;;;;;;;;;;24.01;69.80;100561.53;5090887;28;1521;-41
2021/07/13 12:50:01;;;;;;;;;;;;;;;24.01;69.95;100560.66;5090053;28;1971;-42
2021/07/13 12:52:32;;;;;;;;;;;;;;;24.02;69.84;100562.38;5089171;28;1461;-41
2021/07/13 12:54:59;;;;;;;;;;;;;;;24.02;69.74;100567.75;5088944;28;1737;-41
2021/07/13 12:57:29;;;;;;;;;;;;;;;24.01;70.16;100574.16;5090865;28;2008;-41